Time;durP1;ratioP1;P1;durP2;ratioP2;P2;SDS_P1;SDS_P2;PMS_P1;PMS_P2;Temp;Humidity;BMP_temperature;BMP_pressure;BME280_temperature;BME280_humidity;BME280_pressure;Samples;Min_cycle;Max_cycle;Signal;HPM_P1;HPM_P2
2021/11/06 00:00:24;;;;;;;9.75;7.25;;;;;;;1.06;90.30;102083.06;5026703;28;20040;-75
2021/11/06 00:02:50;;;;;;;13.35;8.18;;;;;;;1.04;90.43;102076.91;5026614;28;20063;-74
2021/11/06 00:05:15;;;;;;;11.95;7.47;;;;;;;1.03;90.45;102072.50;5045566;28;20654;-74
2021/11/06 00:07:41;;;;;;;13.73;8.20;;;;;;;1.02;90.32;102070.78;5041176;28;20098;-74
2021/11/06 00:10:07;;;;;;;9.88;7.32;;;;;;;1.02;90.16;102075.41;5041869;28;20114;-75
2021/11/06 00:12:33;;;;;;;11.15;7.80;;;;;;;1.03;90.23;102072.50;5041693;28;20634;-75
2021/11/06 00:14:58;;;;;;;11.55;7.97;;;;;;;0.98;90.44;102069.50;5060898;28;20036;-75
2021/11/06 00:17:24;;;;;;;10.63;7.05;;;;;;;0.98;90.09;102074.97;5042065;28;20024;-75
2021/11/06 00:19:49;;;;;;;11.40;7.43;;;;;;;0.99;89.97;102070.34;5058031;28;20025;-75
2021/11/06 00:22:15;;;;;;;9.82;7.00;;;;;;;0.96;89.99;102063.34;5024410;28;20036;-75
2021/11/06 00:24:40;;;;;;;10.27;6.50;;;;;;;0.93;90.34;102065.63;5056514;28;20037;-75
2021/11/06 00:27:06;;;;;;;8.75;6.95;;;;;;;0.89;90.34;102065.16;5056122;28;20045;-75
2021/11/06 00:29:31;;;;;;;11.63;6.72;;;;;;;0.90;90.29;102072.34;5053522;28;20032;-75
2021/11/06 00:31:57;;;;;;;13.18;7.25;;;;;;;0.92;90.24;102064.78;5040707;28;20028;-75
2021/11/06 00:34:22;;;;;;;11.48;7.28;;;;;;;0.86;90.20;102071.00;5022810;28;20032;-74
2021/11/06 00:36:48;;;;;;;12.25;7.10;;;;;;;0.83;90.42;102076.88;5058964;28;20503;-75
2021/11/06 00:39:13;;;;;;;8.48;6.03;;;;;;;0.83;90.33;102077.72;5040790;28;20500;-75
2021/11/06 00:41:39;;;;;;;9.50;6.60;;;;;;;0.82;90.37;102075.19;5025361;28;20024;-75
2021/11/06 00:44:05;;;;;;;11.98;6.40;;;;;;;0.80;90.46;102074.50;5039487;28;20025;-75
2021/11/06 00:46:31;;;;;;;10.93;5.45;;;;;;;0.75;90.38;102066.03;5059267;28;20033;-75
2021/11/06 00:48:57;;;;;;;11.25;7.18;;;;;;;0.73;90.38;102071.72;5036410;28;20044;-75
2021/11/06 00:51:22;;;;;;;10.57;6.57;;;;;;;0.72;90.38;102064.53;5044985;28;20036;-75
2021/11/06 00:53:48;;;;;;;11.15;7.20;;;;;;;0.71;90.14;102067.47;5060233;28;20024;-76
2021/11/06 00:56:13;;;;;;;13.55;7.45;;;;;;;0.66;90.45;102071.59;5047113;28;20090;-75
2021/11/06 00:58:39;;;;;;;11.10;6.97;;;;;;;0.66;90.36;102066.13;5046143;28;20020;-75
2021/11/06 01:01:04;;;;;;;11.77;7.10;;;;;;;0.63;90.35;102060.22;5040722;28;20033;-75
2021/11/06 01:03:30;;;;;;;11.63;7.45;;;;;;;0.63;90.10;102061.06;5024699;28;20032;-75
2021/11/06 01:05:55;;;;;;;12.77;7.97;;;;;;;0.60;90.27;102066.06;5040951;28;20025;-75
2021/11/06 01:08:21;;;;;;;15.20;8.57;;;;;;;0.60;90.44;102075.09;5038308;28;20034;-75
2021/11/06 01:10:47;;;;;;;12.85;7.38;;;;;;;0.57;90.44;102078.22;5068680;28;20033;-75
2021/11/06 01:13:12;;;;;;;10.80;7.65;;;;;;;0.56;90.38;102081.16;5039150;28;20075;-75
2021/11/06 01:15:38;;;;;;;12.85;7.80;;;;;;;0.50;90.59;102087.38;5060531;28;20481;-74
2021/11/06 01:18:03;;;;;;;11.95;7.53;;;;;;;0.52;90.39;102079.81;5062146;28;20079;-75
2021/11/06 01:20:29;;;;;;;11.60;7.28;;;;;;;0.52;90.53;102077.94;5064357;28;20096;-75
2021/11/06 01:22:54;;;;;;;11.68;7.38;;;;;;;0.48;90.34;102078.53;5059046;28;20052;-75
2021/11/06 01:25:20;;;;;;;11.48;7.53;;;;;;;0.49;90.26;102077.47;5056723;28;20444;-75
2021/11/06 01:27:46;;;;;;;9.52;6.95;;;;;;;0.47;90.27;102072.19;5054801;28;20049;-74
2021/11/06 01:30:12;;;;;;;13.23;8.30;;;;;;;0.49;90.15;102081.06;5042707;28;20044;-75
2021/11/06 01:32:38;;;;;;;13.40;7.72;;;;;;;0.45;90.31;102090.69;5055671;28;20021;-75
2021/11/06 01:35:05;;;;;;;11.70;7.38;;;;;;;0.41;90.63;102083.88;5057436;28;20143;-74
2021/11/06 01:37:30;;;;;;;12.70;7.88;;;;;;;0.39;90.39;102075.00;5011160;28;20638;-74
2021/11/06 01:39:56;;;;;;;13.10;7.65;;;;;;;0.46;90.34;102077.84;5042229;28;20025;-74
2021/11/06 01:42:23;;;;;;;11.40;7.70;;;;;;;0.36;90.49;102080.84;5040376;28;20393;-74
2021/11/06 01:44:48;;;;;;;10.98;7.07;;;;;;;0.39;90.31;102075.00;5040197;28;20093;-74
2021/11/06 01:47:14;;;;;;;10.52;7.55;;;;;;;0.36;90.37;102078.13;5040626;28;20516;-74
2021/11/06 01:49:39;;;;;;;13.73;7.70;;;;;;;0.34;90.34;102083.78;5041513;28;20029;-74
2021/11/06 01:52:06;;;;;;;13.07;8.23;;;;;;;0.34;90.32;102086.53;5068886;28;20033;-74
2021/11/06 01:54:32;;;;;;;11.85;7.72;;;;;;;0.32;90.55;102088.59;5032239;28;20036;-74
2021/11/06 01:56:57;;;;;;;12.60;7.45;;;;;;;0.32;90.57;102088.59;5027095;28;20032;-74
2021/11/06 01:59:23;;;;;;;11.27;7.85;;;;;;;0.30;90.37;102098.00;5042848;28;20028;-74
2021/11/06 02:01:49;;;;;;;11.30;8.02;;;;;;;0.28;90.29;102086.41;5036354;28;20060;-75
2021/11/06 02:04:15;;;;;;;11.45;7.88;;;;;;;0.26;90.31;102083.88;5060274;28;20393;-74
2021/11/06 02:06:40;;;;;;;11.55;7.55;;;;;;;0.21;90.57;102086.31;5032031;28;20024;-75
2021/11/06 02:09:06;;;;;;;13.70;7.53;;;;;;;0.22;90.38;102086.16;5039822;28;20378;-75
2021/11/06 02:11:32;;;;;;;10.68;7.50;;;;;;;0.18;90.57;102087.53;5046450;28;20118;-75
2021/11/06 02:13:58;;;;;;;11.50;8.05;;;;;;;0.18;90.41;102090.28;5069500;28;20029;-74
2021/11/06 02:16:23;;;;;;;12.13;8.52;;;;;;;0.17;90.58;102088.59;5071320;28;20127;-75
2021/11/06 02:18:49;;;;;;;14.88;8.48;;;;;;;0.16;90.48;102091.50;5022514;28;20516;-74
2021/11/06 02:21:14;;;;;;;13.65;8.73;;;;;;;0.15;90.22;102090.66;5040232;28;20028;-75
2021/11/06 02:23:41;;;;;;;11.07;8.63;;;;;;;0.13;90.36;102080.94;5026916;28;20400;-74
2021/11/06 02:26:08;;;;;;;12.63;8.80;;;;;;;0.11;90.37;102081.16;5063880;28;20485;-74
2021/11/06 02:28:33;;;;;;;14.63;9.40;;;;;;;0.07;90.45;102079.81;5043784;28;20032;-75
2021/11/06 02:30:59;;;;;;;12.80;9.50;;;;;;;0.06;90.36;102086.31;5055045;28;20043;-75
2021/11/06 02:33:24;;;;;;;13.15;9.52;;;;;;;0.08;90.50;102077.91;5038217;28;20030;-74
2021/11/06 02:35:50;;;;;;;14.30;9.27;;;;;;;0.03;90.36;102091.28;5025278;28;20540;-75
2021/11/06 02:38:16;;;;;;;16.40;9.07;;;;;;;0.01;90.34;102094.22;5035947;28;20040;-74
2021/11/06 02:40:41;;;;;;;11.85;9.30;;;;;;;0.01;90.42;102102.41;5034924;28;20446;-75
2021/11/06 02:43:09;;;;;;;13.65;9.45;;;;;;;-0.01;90.44;102101.72;5049466;28;20032;-74
2021/11/06 02:45:35;;;;;;;11.60;9.07;;;;;;;-0.03;90.36;102101.06;5023627;28;20025;-75
2021/11/06 02:48:01;;;;;;;14.18;10.32;;;;;;;-0.03;90.20;102098.34;5038015;28;20064;-74
2021/11/06 02:50:27;;;;;;;13.10;9.45;;;;;;;-0.08;90.33;102101.63;5024325;28;20432;-75
2021/11/06 02:52:52;;;;;;;12.75;9.00;;;;;;;-0.08;90.51;102106.25;5036583;28;20087;-75
2021/11/06 02:55:18;;;;;;;12.93;9.15;;;;;;;-0.12;90.31;102092.09;5038193;28;20036;-75
2021/11/06 02:57:44;;;;;;;14.23;10.20;;;;;;;-0.10;90.30;102092.78;5036443;28;20056;-75
2021/11/06 03:00:10;;;;;;;13.63;9.57;;;;;;;-0.12;90.19;102083.06;5051536;28;20029;-74
2021/11/06 03:02:36;;;;;;;16.40;10.25;;;;;;;-0.14;90.26;102085.13;5036360;28;20040;-75
2021/11/06 03:05:06;;;;;;;16.00;9.45;;;;;;;-0.12;90.29;102083.91;5039135;28;20028;-75
2021/11/06 03:07:31;;;;;;;12.45;9.65;;;;;;;-0.14;90.49;102076.94;5021679;28;20040;-75
2021/11/06 03:09:57;;;;;;;14.32;10.00;;;;;;;-0.15;90.66;102075.25;5055208;28;20025;-75
2021/11/06 03:12:22;;;;;;;14.18;10.02;;;;;;;-0.10;90.50;102081.00;5057211;28;20032;-75
2021/11/06 03:14:48;;;;;;;15.23;10.35;;;;;;;-0.14;90.72;102085.13;5025937;28;20374;-75
2021/11/06 03:17:13;;;;;;;17.13;11.35;;;;;;;-0.18;90.85;102087.38;5054963;28;20044;-75
2021/11/06 03:19:39;;;;;;;15.18;10.73;;;;;;;-0.18;90.82;102071.00;5054563;28;20431;-75
2021/11/06 03:22:05;;;;;;;14.98;10.38;;;;;;;-0.18;90.64;102081.94;5018958;28;20055;-75
2021/11/06 03:24:31;;;;;;;15.50;10.82;;;;;;;-0.18;90.62;102083.81;5053684;28;20032;-75
2021/11/06 03:26:56;;;;;;;14.15;10.13;;;;;;;-0.18;90.77;102090.13;5021922;28;20075;-75
2021/11/06 03:29:22;;;;;;;16.30;10.50;;;;;;;-0.19;90.73;102096.63;5039347;28;20033;-75
2021/11/06 03:31:47;;;;;;;14.82;10.57;;;;;;;-0.21;90.45;102085.03;5039195;28;20036;-75
2021/11/06 03:34:13;;;;;;;15.73;11.40;;;;;;;-0.24;90.72;102091.69;5042825;28;20031;-75
2021/11/06 03:36:38;;;;;;;16.63;11.35;;;;;;;-0.23;90.67;102087.09;5038563;28;20028;-75
2021/11/06 03:39:04;;;;;;;15.70;10.75;;;;;;;-0.26;90.84;102088.28;5039737;28;20021;-74
2021/11/06 03:41:30;;;;;;;14.45;11.07;;;;;;;-0.26;90.70;102084.72;5025235;28;20028;-74
2021/11/06 03:43:55;;;;;;;15.07;10.18;;;;;;;-0.30;90.48;102076.06;5040094;28;20033;-75
2021/11/06 03:46:21;;;;;;;16.90;11.18;;;;;;;-0.29;90.85;102083.22;5042437;28;20024;-75
2021/11/06 03:48:46;;;;;;;15.80;10.70;;;;;;;-0.31;90.89;102087.16;5038265;28;20400;-74
2021/11/06 03:51:12;;;;;;;15.18;10.25;;;;;;;-0.30;90.74;102086.97;5046202;28;20037;-74
2021/11/06 03:53:38;;;;;;;16.35;11.30;;;;;;;-0.29;90.85;102085.94;5041352;28;20032;-74
2021/11/06 03:56:03;;;;;;;15.20;10.95;;;;;;;-0.32;90.55;102091.78;5042370;28;20079;-74
2021/11/06 03:58:29;;;;;;;17.02;11.32;;;;;;;-0.32;90.96;102099.97;5027980;28;20032;-74
2021/11/06 04:00:54;;;;;;;15.48;10.77;;;;;;;-0.32;90.76;102090.94;5044148;28;20032;-75
2021/11/06 04:03:20;;;;;;;16.40;10.88;;;;;;;-0.32;90.75;102089.03;5038880;28;21016;-74
2021/11/06 04:05:45;;;;;;;14.30;10.48;;;;;;;-0.32;90.66;102085.47;5043642;28;20528;-74
2021/11/06 04:08:11;;;;;;;17.42;11.27;;;;;;;-0.35;91.06;102092.13;5026621;28;20037;-74
2021/11/06 04:10:37;;;;;;;20.27;11.93;;;;;;;-0.32;90.92;102094.50;5040673;28;20025;-74
2021/11/06 04:13:03;;;;;;;18.67;12.23;;;;;;;-0.32;91.02;102090.94;5030729;28;20032;-75
2021/11/06 04:15:28;;;;;;;17.10;12.88;;;;;;;-0.31;90.84;102089.88;5023490;28;20497;-75
2021/11/06 04:17:54;;;;;;;16.92;12.77;;;;;;;-0.34;91.19;102080.19;5016962;28;20033;-74
2021/11/06 04:20:19;;;;;;;20.13;12.20;;;;;;;-0.30;91.09;102081.53;5030169;28;20454;-75
2021/11/06 04:22:45;;;;;;;17.50;12.10;;;;;;;-0.33;91.08;102081.88;5027681;28;20025;-75
2021/11/06 04:25:10;;;;;;;14.45;11.30;;;;;;;-0.33;91.20;102087.34;5024284;28;20033;-75
2021/11/06 04:27:36;;;;;;;16.02;11.50;;;;;;;-0.32;91.18;102083.56;5040489;28;20071;-74
2021/11/06 04:30:03;;;;;;;16.92;10.82;;;;;;;-0.30;91.24;102081.53;5030412;28;20379;-74
2021/11/06 04:32:28;;;;;;;15.30;11.85;;;;;;;-0.31;91.19;102088.00;5008083;28;20481;-75
2021/11/06 04:34:54;;;;;;;18.38;11.57;;;;;;;-0.33;91.40;102084.63;5041603;28;20055;-74
2021/11/06 04:37:19;;;;;;;14.63;10.45;;;;;;;-0.33;91.34;102087.34;5040653;28;20025;-74
2021/11/06 04:39:45;;;;;;;14.60;11.23;;;;;;;-0.30;90.98;102091.59;5006850;28;20024;-74
2021/11/06 04:42:10;;;;;;;16.13;11.02;;;;;;;-0.28;91.22;102087.66;5022843;28;20075;-74
2021/11/06 04:44:36;;;;;;;13.68;10.48;;;;;;;-0.28;91.05;102093.13;5019310;28;20359;-74
2021/11/06 04:47:02;;;;;;;16.92;11.20;;;;;;;-0.27;91.07;102089.34;5020701;28;20487;-74
2021/11/06 04:49:27;;;;;;;14.82;11.00;;;;;;;-0.28;90.96;102089.50;5037933;28;20172;-74
2021/11/06 04:51:53;;;;;;;15.75;11.50;;;;;;;-0.31;91.01;102087.16;5004567;28;20548;-74
2021/11/06 04:54:19;;;;;;;16.98;11.05;;;;;;;-0.32;90.98;102089.03;5040583;28;20028;-74
2021/11/06 04:56:45;;;;;;;14.70;10.73;;;;;;;-0.30;90.89;102086.97;5008534;28;20063;-74
2021/11/06 04:59:10;;;;;;;14.63;11.07;;;;;;;-0.33;91.06;102092.81;5043387;28;20417;-74
2021/11/06 05:01:36;;;;;;;15.77;10.57;;;;;;;-0.36;90.89;102084.13;5034230;28;20030;-74
2021/11/06 05:04:01;;;;;;;14.10;10.32;;;;;;;-0.35;90.78;102086.69;5019741;28;20386;-74
2021/11/06 05:06:30;;;;;;;15.25;10.73;;;;;;;-0.38;90.85;102083.47;5012633;28;20033;-74
2021/11/06 05:08:55;;;;;;;15.85;10.73;;;;;;;-0.39;90.93;102084.50;5058810;28;20449;-75
2021/11/06 05:11:21;;;;;;;14.15;10.18;;;;;;;-0.39;90.95;102082.63;5042725;28;20040;-74
2021/11/06 05:13:47;;;;;;;15.32;10.40;;;;;;;-0.41;90.85;102084.69;5035695;28;20037;-74
2021/11/06 05:16:12;;;;;;;14.85;9.90;;;;;;;-0.43;91.00;102072.25;5041628;28;20045;-74
2021/11/06 05:18:38;;;;;;;12.35;9.88;;;;;;;-0.38;91.10;102078.03;5039037;28;20029;-75
2021/11/06 05:21:03;;;;;;;13.73;10.00;;;;;;;-0.41;91.77;102084.69;5033699;28;20076;-74
2021/11/06 05:23:29;;;;;;;14.07;10.20;;;;;;;-0.41;91.36;102081.13;5023639;28;20025;-74
2021/11/06 05:25:54;;;;;;;14.40;10.80;;;;;;;-0.44;91.39;102085.06;5012278;28;20037;-74
2021/11/06 05:28:20;;;;;;;15.25;10.18;;;;;;;-0.46;91.39;102081.66;5041024;28;20127;-75
2021/11/06 05:30:46;;;;;;;15.80;10.40;;;;;;;-0.46;91.28;102073.47;5030300;28;20060;-75
2021/11/06 05:33:11;;;;;;;15.40;10.32;;;;;;;-0.43;90.85;102072.25;5037399;28;20182;-75
2021/11/06 05:35:37;;;;;;;14.05;10.27;;;;;;;-0.47;91.19;102072.63;5028572;28;20108;-74
2021/11/06 05:38:03;;;;;;;14.90;10.43;;;;;;;-0.48;90.97;102064.59;5018336;28;20031;-75
2021/11/06 05:40:28;;;;;;;13.18;9.73;;;;;;;-0.49;90.96;102071.94;5036398;28;20040;-74
2021/11/06 05:42:54;;;;;;;12.77;9.20;;;;;;;-0.48;90.87;102072.78;5053810;28;20029;-75
2021/11/06 05:45:19;;;;;;;15.75;10.32;;;;;;;-0.47;90.83;102074.50;5036907;28;20036;-75
2021/11/06 05:47:45;;;;;;;12.20;9.20;;;;;;;-0.47;90.84;102079.97;5057131;28;20044;-74
2021/11/06 05:50:11;;;;;;;11.30;8.98;;;;;;;-0.52;91.04;102076.94;5038500;28;20041;-75
2021/11/06 05:52:37;;;;;;;15.38;10.70;;;;;;;-0.54;91.22;102073.53;5057979;28;20032;-75
2021/11/06 05:55:04;;;;;;;13.15;9.73;;;;;;;-0.57;91.34;102072.00;5034711;28;20524;-75
2021/11/06 05:57:29;;;;;;;13.60;9.65;;;;;;;-0.58;90.96;102064.03;5024443;28;20025;-74
2021/11/06 05:59:55;;;;;;;13.10;9.50;;;;;;;-0.53;91.04;102061.56;5058531;28;20056;-74
2021/11/06 06:02:20;;;;;;;13.05;9.65;;;;;;;-0.56;91.15;102073.69;5057843;28;20417;-75
2021/11/06 06:04:46;;;;;;;13.70;9.32;;;;;;;-0.54;91.17;102068.91;5056998;28;20099;-74
2021/11/06 06:07:12;;;;;;;14.35;10.25;;;;;;;-0.58;91.09;102064.03;5058023;28;20025;-74
2021/11/06 06:09:37;;;;;;;11.93;9.88;;;;;;;-0.59;91.24;102068.59;5040439;28;20036;-75
2021/11/06 06:12:03;;;;;;;14.57;10.23;;;;;;;-0.59;91.33;102067.75;5053789;28;20029;-75
2021/11/06 06:14:28;;;;;;;13.00;9.65;;;;;;;-0.61;91.29;102067.09;5058319;28;20020;-74
2021/11/06 06:16:54;;;;;;;14.73;9.60;;;;;;;-0.59;91.28;102065.88;5041363;28;20397;-75
2021/11/06 06:19:19;;;;;;;13.82;9.77;;;;;;;-0.61;91.52;102067.97;5056226;28;20432;-75
2021/11/06 06:21:45;;;;;;;12.73;9.15;;;;;;;-0.58;91.62;102062.13;5057971;28;20029;-74
2021/11/06 06:24:10;;;;;;;14.43;9.70;;;;;;;-0.57;91.77;102062.97;5056581;28;20044;-74
2021/11/06 06:26:36;;;;;;;16.27;9.05;;;;;;;-0.57;91.91;102062.97;5025024;28;20040;-74
2021/11/06 06:29:01;;;;;;;14.15;9.07;;;;;;;-0.55;91.75;102066.38;5022399;28;20374;-74
2021/11/06 06:31:27;;;;;;;13.90;9.63;;;;;;;-0.55;91.86;102063.66;5024118;28;20028;-74
2021/11/06 06:33:54;;;;;;;14.70;9.57;;;;;;;-0.50;91.73;102058.50;5055560;28;20049;-75
2021/11/06 06:36:20;;;;;;;13.60;9.75;;;;;;;-0.49;91.68;102060.19;5021794;28;20048;-75
2021/11/06 06:38:45;;;;;;;13.23;8.98;;;;;;;-0.52;91.50;102053.22;5042810;28;20029;-74
2021/11/06 06:41:11;;;;;;;12.75;9.10;;;;;;;-0.51;91.48;102056.78;5055116;28;20046;-74
2021/11/06 06:43:37;;;;;;;14.02;9.25;;;;;;;-0.49;91.57;102061.03;5042297;28;20078;-74
2021/11/06 06:46:03;;;;;;;12.43;9.02;;;;;;;-0.48;91.58;102070.06;5038339;28;20036;-75
2021/11/06 06:48:28;;;;;;;11.30;8.85;;;;;;;-0.47;91.53;102071.78;5070710;28;20037;-75
2021/11/06 06:50:54;;;;;;;13.63;8.73;;;;;;;-0.45;91.28;102058.78;5060540;28;20048;-74
2021/11/06 06:53:20;;;;;;;11.88;8.15;;;;;;;-0.47;91.45;102058.97;5046894;28;20028;-74
2021/11/06 06:55:47;;;;;;;13.60;8.70;;;;;;;-0.46;91.28;102062.53;5041693;28;20047;-74
2021/11/06 06:58:12;;;;;;;12.35;8.73;;;;;;;-0.44;91.40;102081.47;5058749;28;20481;-75
2021/11/06 07:00:38;;;;;;;14.75;9.55;;;;;;;-0.48;91.37;102083.72;5038979;28;20048;-74
2021/11/06 07:03:03;;;;;;;13.18;8.50;;;;;;;-0.48;91.54;102081.81;5059354;28;20441;-74
2021/11/06 07:05:29;;;;;;;11.93;9.30;;;;;;;-0.49;91.91;102087.47;5057192;28;20029;-74
2021/11/06 07:07:56;;;;;;;13.20;9.23;;;;;;;-0.48;91.77;102094.63;5038577;28;20461;-74
2021/11/06 07:10:22;;;;;;;22.58;15.77;;;;;;;-0.45;91.73;102091.53;5055071;28;20036;-74
2021/11/06 07:12:48;;;;;;;15.02;11.75;;;;;;;-0.43;91.76;102103.13;5058948;28;20024;-75
2021/11/06 07:15:13;;;;;;;15.00;11.32;;;;;;;-0.44;92.00;102095.97;5066371;28;20485;-74
2021/11/06 07:17:39;;;;;;;18.48;11.82;;;;;;;-0.42;92.00;102093.88;5057762;28;20029;-74
2021/11/06 07:20:06;;;;;;;17.10;11.40;;;;;;;-0.39;92.15;102098.13;5059970;28;20029;-74
2021/11/06 07:22:32;;;;;;;13.93;10.57;;;;;;;-0.38;92.22;102097.97;5060593;28;20037;-75
2021/11/06 07:24:57;;;;;;;14.70;11.10;;;;;;;-0.33;92.11;102098.28;5060272;28;20096;-74
2021/11/06 07:27:23;;;;;;;13.80;10.52;;;;;;;-0.29;92.08;102102.31;5049516;28;20056;-74
2021/11/06 07:29:48;;;;;;;13.52;10.23;;;;;;;-0.27;92.13;102113.06;5042971;28;20029;-74
2021/11/06 07:32:14;;;;;;;16.55;10.27;;;;;;;-0.23;91.91;102114.38;5026359;28;20036;-74
2021/11/06 07:34:39;;;;;;;12.95;9.80;;;;;;;-0.15;92.02;102116.22;5042626;28;20037;-74
2021/11/06 07:37:06;;;;;;;15.82;10.00;;;;;;;-0.12;92.05;102113.94;5054905;28;20025;-74
2021/11/06 07:39:32;;;;;;;13.85;10.38;;;;;;;-0.06;92.44;102115.09;5061270;28;20021;-74
2021/11/06 07:41:57;;;;;;;14.90;10.82;;;;;;;0.03;92.92;102115.88;5058762;28;20044;-74
2021/11/06 07:44:23;;;;;;;14.00;10.23;;;;;;;0.09;93.23;102116.00;5043588;28;20036;-74
2021/11/06 07:46:48;;;;;;;15.68;10.30;;;;;;;0.21;93.31;102114.50;5044592;28;20025;-74
2021/11/06 07:49:14;;;;;;;13.05;10.05;;;;;;;0.32;93.09;102118.66;5025199;28;20040;-74
2021/11/06 07:51:39;;;;;;;13.70;10.27;;;;;;;0.41;93.24;102114.78;5027368;28;20021;-75
2021/11/06 07:54:05;;;;;;;12.35;9.70;;;;;;;0.54;93.30;102122.34;5016650;28;20520;-74
2021/11/06 07:56:32;;;;;;;14.15;10.48;;;;;;;0.66;93.08;102120.81;5056825;28;20037;-74
2021/11/06 07:58:57;;;;;;;13.60;10.13;;;;;;;0.80;93.39;102112.81;5046560;28;20048;-74
2021/11/06 08:01:23;;;;;;;12.25;9.52;;;;;;;0.94;93.55;102127.50;5048016;28;20466;-74
2021/11/06 08:03:49;;;;;;;15.20;9.80;;;;;;;1.07;93.79;102119.47;5040017;28;20029;-74
2021/11/06 08:06:16;;;;;;;12.93;9.88;;;;;;;1.18;94.05;102118.97;5031072;28;20028;-73
2021/11/06 08:08:42;;;;;;;14.27;10.05;;;;;;;1.32;93.63;102128.19;5050924;28;20100;-74
2021/11/06 08:11:07;;;;;;;12.93;10.38;;;;;;;1.38;93.75;102130.16;5061421;28;20028;-74
2021/11/06 08:13:34;;;;;;;13.90;9.70;;;;;;;1.47;93.58;102134.44;5046044;28;20470;-74
2021/11/06 08:16:00;;;;;;;13.48;10.40;;;;;;;1.56;93.36;102138.78;5060500;28;20148;-74
2021/11/06 08:18:26;;;;;;;14.68;9.77;;;;;;;1.64;93.32;102131.47;5042233;28;20033;-74
2021/11/06 08:20:54;;;;;;;13.32;9.60;;;;;;;1.71;93.13;102127.75;5061367;28;20063;-73
2021/11/06 08:23:19;;;;;;;15.25;10.40;;;;;;;1.79;93.38;102129.53;5046720;28;20449;-73
2021/11/06 08:25:47;;;;;;;14.10;10.18;;;;;;;1.90;93.77;102130.88;5064796;28;20040;-74
2021/11/06 08:28:12;;;;;;;15.57;10.60;;;;;;;2.01;94.22;102130.34;5055062;28;20128;-74
2021/11/06 08:30:38;;;;;;;14.02;10.55;;;;;;;2.13;94.70;102127.91;5063356;28;20040;-74
2021/11/06 08:33:03;;;;;;;14.68;10.95;;;;;;;2.27;96.08;102137.94;5043229;28;20037;-74
2021/11/06 08:35:30;;;;;;;14.30;10.55;;;;;;;2.42;95.90;102130.47;5062869;28;20029;-74
2021/11/06 08:37:59;;;;;;;15.13;10.35;;;;;;;2.62;96.46;102135.22;5057862;28;20036;-74
2021/11/06 08:40:25;;;;;;;18.48;13.07;;;;;;;2.79;100.00;102133.84;5039801;28;20029;-74
2021/11/06 08:42:51;;;;;;;18.48;11.73;;;;;;;3.00;98.83;102132.03;5039056;28;20036;-74
2021/11/06 08:45:17;;;;;;;17.33;12.30;;;;;;;3.19;99.00;102134.03;5038855;28;20486;-74
2021/11/06 08:47:43;;;;;;;13.50;10.55;;;;;;;3.40;97.66;102143.16;5036347;28;20054;-73
2021/11/06 08:50:13;;;;;;;17.38;12.32;;;;;;;3.55;98.66;102135.63;5023731;28;20040;-73
2021/11/06 08:52:39;;;;;;;12.85;10.30;;;;;;;3.69;97.45;102134.59;5053638;28;20095;-73
2021/11/06 08:55:05;;;;;;;16.08;11.23;;;;;;;3.84;95.11;102136.28;5054954;28;20033;-73
2021/11/06 08:57:32;;;;;;;17.45;10.95;;;;;;;3.98;94.72;102132.50;5039428;28;20024;-73
2021/11/06 09:00:05;;;;;;;13.77;11.68;;;;;;;4.10;95.75;102133.56;5024398;28;20024;-74
2021/11/06 09:02:30;;;;;;;14.88;12.25;;;;;;;4.20;96.13;102142.22;5041147;28;20028;-74
2021/11/06 09:04:56;;;;;;;18.80;13.50;;;;;;;4.29;97.76;102144.75;5005259;28;20637;-75
2021/11/06 09:07:21;;;;;;;15.57;11.82;;;;;;;4.38;95.86;102138.00;5037664;28;20029;-74
2021/11/06 09:09:47;;;;;;;18.42;12.65;;;;;;;4.45;96.19;102144.34;5038916;28;20017;-74
2021/11/06 09:12:12;;;;;;;14.57;11.10;;;;;;;4.51;95.02;102140.72;5061786;28;20040;-74
2021/11/06 09:14:38;;;;;;;19.23;13.88;;;;;;;4.58;97.14;102147.06;5020974;28;20084;-74
2021/11/06 09:17:04;;;;;;;15.70;10.82;;;;;;;4.64;95.53;102137.94;5043775;28;20111;-74
2021/11/06 09:19:29;;;;;;;22.45;15.90;;;;;;;4.73;100.00;102149.56;5042544;28;20025;-74
2021/11/06 09:21:55;;;;;;;13.90;11.05;;;;;;;4.80;96.48;102147.66;5058133;28;20036;-74
2021/11/06 09:24:20;;;;;;;15.85;11.40;;;;;;;4.90;96.29;102152.72;5039447;28;20052;-74
2021/11/06 09:26:46;;;;;;;12.85;9.82;;;;;;;4.99;95.93;102140.41;5049370;28;20049;-73
2021/11/06 09:29:14;;;;;;;14.90;10.57;;;;;;;5.10;96.22;102139.72;5028721;28;20039;-74
2021/11/06 09:31:40;;;;;;;14.93;11.00;;;;;;;5.20;99.65;102136.50;5040192;28;20080;-74
2021/11/06 09:34:05;;;;;;;15.23;10.90;;;;;;;5.28;100.00;102130.75;5023059;28;20025;-74
2021/11/06 09:36:32;;;;;;;13.75;9.85;;;;;;;5.36;100.00;102129.66;5022650;28;20025;-74
2021/11/06 09:39:01;;;;;;;13.10;9.10;;;;;;;5.48;99.10;102133.38;5040060;28;20030;-74
2021/11/06 09:41:26;;;;;;;15.35;9.93;;;;;;;5.58;100.00;102128.25;5041327;28;20020;-74
2021/11/06 09:43:52;;;;;;;11.68;8.70;;;;;;;5.70;99.55;102125.63;5016447;28;20091;-74
2021/11/06 09:46:17;;;;;;;12.15;8.75;;;;;;;5.82;100.00;102125.75;5036681;28;20116;-74
2021/11/06 09:48:44;;;;;;;11.52;8.32;;;;;;;5.94;100.00;102121.25;5031338;28;20033;-73
2021/11/06 09:51:10;;;;;;;15.52;8.20;;;;;;;6.08;100.00;102113.72;5043102;28;20029;-74
2021/11/06 09:53:40;;;;;;;9.55;7.70;;;;;;;6.21;99.33;102105.34;5049739;28;20493;-74
2021/11/06 09:56:10;;;;;;;10.82;7.70;;;;;;;6.34;100.00;102109.03;5038753;28;20020;-74
2021/11/06 09:58:35;;;;;;;13.07;7.05;;;;;;;6.45;98.44;102111.03;5022593;28;20021;-74
2021/11/06 10:01:01;;;;;;;13.02;7.45;;;;;;;6.59;99.83;102106.22;5055892;28;20439;-74
2021/11/06 10:03:26;;;;;;;11.10;7.68;;;;;;;6.72;99.05;102106.94;5040099;28;20479;-74
2021/11/06 10:05:53;;;;;;;11.68;8.00;;;;;;;6.85;100.00;102108.72;5026398;28;20025;-74
2021/11/06 10:08:24;;;;;;;11.40;7.15;;;;;;;6.94;98.91;102104.56;5048794;28;20052;-74
2021/11/06 10:10:51;;;;;;;13.45;7.05;;;;;;;7.06;100.00;102101.84;5041905;28;20092;-74
2021/11/06 10:13:16;;;;;;;10.50;7.50;;;;;;;7.15;98.93;102113.44;5038010;28;20035;-74
2021/11/06 10:15:44;;;;;;;12.05;8.63;;;;;;;7.24;99.12;102125.00;5040961;28;20033;-75
2021/11/06 10:18:19;;;;;;;14.52;9.48;;;;;;;7.30;100.00;102119.41;5048333;28;20032;-74
2021/11/06 10:20:54;;;;;;;11.85;7.07;;;;;;;7.38;97.67;102127.38;5042628;28;20033;-74
2021/11/06 10:23:21;;;;;;;14.38;9.02;;;;;;;7.47;97.47;102129.81;5050176;28;20036;-74
2021/11/06 10:25:47;;;;;;;13.98;8.15;;;;;;;7.56;97.52;102136.72;5021102;28;20036;-74
2021/11/06 10:28:12;;;;;;;15.65;8.40;;;;;;;7.61;96.38;102126.63;5052175;28;20041;-74
2021/11/06 10:30:40;;;;;;;11.65;9.60;;;;;;;7.68;95.47;102134.81;5042128;28;20036;-74
2021/11/06 10:33:41;;;;;;;11.85;8.80;;;;;;;7.75;94.14;102143.88;5023251;28;20060;-74
2021/11/06 10:36:06;;;;;;;12.50;8.85;;;;;;;7.82;94.94;102139.06;5038531;28;20087;-74
2021/11/06 10:38:32;;;;;;;18.60;11.32;;;;;;;7.90;96.33;102145.34;5021888;28;20037;-74
2021/11/06 10:41:01;;;;;;;16.75;8.43;;;;;;;7.96;93.51;102152.69;5027357;28;20041;-74
2021/11/06 10:43:27;;;;;;;16.45;10.85;;;;;;;8.01;92.13;102153.69;5038438;28;20025;-74
2021/11/06 10:45:55;;;;;;;18.02;11.40;;;;;;;8.10;93.65;102148.63;5038934;28;20099;-74
2021/11/06 10:48:22;;;;;;;11.57;8.57;;;;;;;8.15;90.29;102150.72;5041147;28;20033;-74
2021/11/06 10:50:59;;;;;;;14.50;9.35;;;;;;;8.23;91.86;102142.91;5058032;28;20041;-74
2021/11/06 10:53:35;;;;;;;13.50;9.15;;;;;;;8.31;90.79;102140.88;5066117;28;20029;-74
2021/11/06 10:56:03;;;;;;;14.25;9.68;;;;;;;8.39;90.80;102148.84;5038035;28;20047;-73
2021/11/06 10:58:33;;;;;;;18.38;11.95;;;;;;;8.45;92.20;102142.34;5033234;28;20025;-74
2021/11/06 11:01:01;;;;;;;17.13;11.32;;;;;;;8.54;93.48;102145.59;5042424;28;20500;-75
2021/11/06 11:03:28;;;;;;;16.20;9.75;;;;;;;8.59;92.75;102149.34;5048012;28;20052;-75
2021/11/06 11:05:55;;;;;;;19.15;11.75;;;;;;;8.67;93.48;102148.13;5046430;28;20029;-74
2021/11/06 11:08:20;;;;;;;16.00;11.95;;;;;;;8.71;93.43;102155.69;5060434;28;20111;-74
2021/11/06 11:10:46;;;;;;;16.73;11.05;;;;;;;8.78;92.90;102144.50;5036438;28;20037;-74